Time;durP1;ratioP1;P1;durP2;ratioP2;P2;SDS_P1;SDS_P2;PMS_P1;PMS_P2;Temp;Humidity;BMP_temperature;BMP_pressure;BME280_temperature;BME280_humidity;BME280_pressure;Samples;Min_cycle;Max_cycle;Signal;HPM_P1;HPM_P2
2022/11/10 00:02:01;;;;;;;4.80;3.10;;;12.60;99.90;;;;;;5096414;28;20812;-60
2022/11/10 00:04:30;;;;;;;3.33;3.10;;;12.50;99.90;;;;;;5096543;28;20447;-60
2022/11/10 00:06:57;;;;;;;4.43;2.50;;;;;;;;;;5096152;28;20494;-60
2022/11/10 00:09:24;;;;;;;4.70;3.23;;;12.50;99.90;;;;;;5096499;28;20781;-60
2022/11/10 00:11:52;;;;;;;8.93;3.13;;;12.50;99.90;;;;;;5096373;28;21003;-60
2022/11/10 00:17:04;;;;;;;3.77;2.90;;;12.50;99.90;;;;;;5095349;28;20407;-60
2022/11/10 00:19:34;;;;;;;2.87;2.67;;;12.50;99.90;;;;;;5096208;28;20450;-60
2022/11/10 00:22:02;;;;;;;5.73;3.20;;;12.60;99.90;;;;;;5096138;28;20471;-60
2022/11/10 00:24:29;;;;;;;3.33;3.03;;;12.50;99.90;;;;;;5096121;28;20443;-60
2022/11/10 00:26:56;;;;;;;3.43;3.13;;;12.40;99.90;;;;;;5096050;28;20536;-60
2022/11/10 00:29:23;;;;;;;4.67;2.93;;;12.40;99.90;;;;;;5096092;28;20444;-60
2022/11/10 00:31:50;;;;;;;6.63;2.80;;;12.40;99.90;;;;;;5095765;28;20439;-60
2022/11/10 00:34:17;;;;;;;2.63;2.43;;;12.40;99.90;;;;;;5095883;28;20819;-59
2022/11/10 00:36:46;;;;;;;3.73;2.57;;;12.50;99.90;;;;;;5095647;28;20443;-60
2022/11/10 00:39:13;;;;;;;4.60;2.67;;;12.40;99.90;;;;;;5095930;28;20455;-60
2022/11/10 00:41:40;;;;;;;3.03;2.73;;;12.40;99.90;;;;;;5095761;28;20475;-60
2022/11/10 00:44:08;;;;;;;3.20;2.20;;;12.40;99.90;;;;;;5095719;28;20526;-60
2022/11/10 00:46:39;;;;;;;2.73;2.50;;;12.40;99.90;;;;;;5095386;28;20470;-60
2022/11/10 00:49:07;;;;;;;5.00;3.00;;;12.50;99.90;;;;;;5095155;28;20447;-60
2022/11/10 00:51:34;;;;;;;3.73;2.20;;;12.40;99.90;;;;;;5095617;28;20438;-60
2022/11/10 00:54:02;;;;;;;3.13;2.80;;;12.40;99.90;;;;;;5095363;28;20539;-60
2022/11/10 00:56:30;;;;;;;14.63;3.87;;;12.40;99.90;;;;;;5095438;28;20498;-60
2022/11/10 00:58:57;;;;;;;3.27;2.70;;;12.50;99.90;;;;;;5095083;28;20443;-60
2022/11/10 01:01:26;;;;;;;3.17;2.90;;;12.50;99.90;;;;;;5095128;28;20483;-60
2022/11/10 01:03:54;;;;;;;5.63;3.00;;;12.40;99.90;;;;;;5095060;28;20483;-60
2022/11/10 01:06:22;;;;;;;4.17;3.03;;;12.30;99.90;;;;;;5095149;28;20495;-60
2022/11/10 01:08:50;;;;;;;4.50;2.83;;;12.40;99.90;;;;;;5095136;28;20458;-60
2022/11/10 01:11:20;;;;;;;5.30;3.07;;;12.40;99.90;;;;;;5095297;28;20542;-60
2022/11/10 01:13:49;;;;;;;4.10;2.60;;;12.40;99.90;;;;;;5094861;28;20852;-60
2022/11/10 01:16:19;;;;;;;4.27;2.63;;;12.30;99.90;;;;;;5094643;28;20626;-60
2022/11/10 01:18:50;;;;;;;3.90;2.47;;;12.40;99.90;;;;;;5095189;28;21068;-60
2022/11/10 01:21:17;;;;;;;5.50;3.10;;;12.30;99.90;;;;;;5094966;28;20428;-60
2022/11/10 01:23:44;;;;;;;5.63;2.70;;;12.20;99.90;;;;;;5094953;28;20538;-60
2022/11/10 01:26:12;;;;;;;8.50;3.53;;;12.20;99.90;;;;;;5095013;28;20493;-60
2022/11/10 01:28:41;;;;;;;4.80;2.53;;;12.20;99.90;;;;;;5093943;28;20443;-60
2022/11/10 01:31:10;;;;;;;7.40;3.13;;;12.30;99.90;;;;;;5094391;28;20455;-60
2022/11/10 01:33:38;;;;;;;6.93;2.73;;;12.10;99.90;;;;;;5094465;28;20538;-60
2022/11/10 01:36:06;;;;;;;7.83;3.07;;;12.00;99.90;;;;;;5094469;28;20969;-60
2022/11/10 01:38:35;;;;;;;7.17;3.20;;;11.90;99.90;;;;;;5094635;28;20455;-60
2022/11/10 01:41:03;;;;;;;3.93;3.47;;;11.90;99.90;;;;;;5094196;28;20443;-60
2022/11/10 01:43:30;;;;;;;4.27;2.80;;;11.90;99.90;;;;;;5094566;28;20483;-60
2022/11/10 01:46:01;;;;;;;8.07;3.57;;;11.90;99.90;;;;;;5094314;28;20468;-60
2022/11/10 01:48:32;;;;;;;5.70;3.00;;;11.90;99.90;;;;;;5094199;28;21044;-60
2022/11/10 01:51:15;;;;;;;10.50;3.00;;;11.80;99.90;;;;;;5111106;27;20946;-60
2022/11/10 01:53:46;;;;;;;6.70;3.10;;;11.80;99.90;;;;;;5111553;28;20799;-60
2022/11/10 01:56:15;;;;;;;3.13;2.70;;;11.70;99.90;;;;;;5111102;28;20496;-59
2022/11/10 01:58:49;;;;;;;5.23;3.07;;;11.70;99.90;;;;;;5110979;28;20999;-59
2022/11/10 02:01:16;;;;;;;6.07;3.27;;;11.70;99.90;;;;;;5110997;28;20423;-59
2022/11/10 02:03:48;;;;;;;8.50;3.40;;;11.60;99.90;;;;;;5111295;28;20514;-60
2022/11/10 02:06:17;;;;;;;7.70;3.20;;;;;;;;;;5110899;28;20971;-62
2022/11/10 02:08:45;;;;;;;3.63;2.73;;;11.50;99.90;;;;;;5111057;28;20443;-59
2022/11/10 02:11:13;;;;;;;3.90;3.30;;;11.50;99.90;;;;;;5111016;28;20447;-59
2022/11/10 02:13:41;;;;;;;8.50;3.20;;;11.60;99.90;;;;;;5110857;28;20455;-60
2022/11/10 02:16:09;;;;;;;8.23;3.10;;;11.50;99.90;;;;;;5110619;28;20469;-59
2022/11/10 02:18:37;;;;;;;7.10;3.00;;;11.40;99.90;;;;;;5110896;28;20525;-61
2022/11/10 02:21:06;;;;;;;4.90;2.50;;;11.50;99.90;;;;;;5110982;28;20517;-60
2022/11/10 02:23:50;;;;;;;10.50;4.00;;;11.50;99.90;;;;;;5110819;28;20443;-59
2022/11/10 02:26:21;;;;;;;6.27;2.77;;;11.50;99.90;;;;;;5110728;28;20513;-59
2022/11/10 02:28:48;;;;;;;5.63;3.43;;;11.40;99.90;;;;;;5110472;28;20981;-59
2022/11/10 02:31:15;;;;;;;13.07;3.60;;;11.30;99.90;;;;;;5110765;28;20892;-59
2022/11/10 02:33:43;;;;;;;5.60;3.63;;;11.40;99.90;;;;;;5110256;28;20534;-59
2022/11/10 02:36:11;;;;;;;4.57;3.93;;;11.30;99.90;;;;;;5110462;28;20494;-59
2022/11/10 02:38:39;;;;;;;6.27;3.37;;;11.30;99.90;;;;;;5110314;28;20896;-59
2022/11/10 02:41:06;;;;;;;3.83;2.53;;;11.20;99.90;;;;;;5110247;28;20449;-59
2022/11/10 02:43:33;;;;;;;5.23;3.07;;;11.20;99.90;;;;;;5110469;28;20591;-59
2022/11/10 02:46:01;;;;;;;5.60;3.00;;;11.10;99.90;;;;;;5110261;28;20860;-59
2022/11/10 02:48:28;;;;;;;4.43;3.10;;;11.10;99.90;;;;;;5110455;28;20490;-59
2022/11/10 02:50:55;;;;;;;5.60;3.27;;;11.10;99.90;;;;;;5109736;28;20585;-59
2022/11/10 02:53:23;;;;;;;9.87;4.03;;;11.10;99.90;;;;;;5109924;28;20447;-59
2022/11/10 02:55:51;;;;;;;7.90;3.90;;;11.10;99.90;;;;;;5110209;28;20481;-59
2022/11/10 02:58:18;;;;;;;5.63;3.07;;;11.10;99.90;;;;;;5110146;28;20449;-60
2022/11/10 03:00:45;;;;;;;5.03;2.93;;;11.00;99.90;;;;;;5105894;28;20531;-60
2022/11/10 03:03:12;;;;;;;7.30;5.20;;;11.00;99.90;;;;;;5096558;28;20807;-59
2022/11/10 03:05:39;;;;;;;5.20;3.50;;;11.00;99.90;;;;;;5096335;28;20554;-61
2022/11/10 03:08:06;;;;;;;8.77;3.40;;;11.00;99.90;;;;;;5096401;28;20442;-59
2022/11/10 03:10:35;;;;;;;19.03;3.50;;;11.10;99.90;;;;;;5096038;28;20483;-59
2022/11/10 03:13:03;;;;;;;5.30;3.07;;;11.00;99.90;;;;;;5096198;28;20455;-59
2022/11/10 03:15:30;;;;;;;8.33;4.50;;;10.90;99.90;;;;;;5095862;28;20507;-60
2022/11/10 03:18:02;;;;;;;5.50;3.50;;;10.90;99.90;;;;;;5095794;28;20453;-59
2022/11/10 03:20:29;;;;;;;4.77;2.90;;;10.90;99.90;;;;;;5096203;28;20439;-59
2022/11/10 03:23:01;;;;;;;4.03;3.27;;;10.90;99.90;;;;;;5096138;28;20439;-59
2022/11/10 03:25:28;;;;;;;3.90;3.00;;;11.00;99.90;;;;;;5096001;28;20471;-59
2022/11/10 03:27:57;;;;;;;5.37;3.63;;;11.00;99.90;;;;;;5095832;28;20453;-59
2022/11/10 03:30:24;;;;;;;4.70;3.53;;;10.90;99.90;;;;;;5095873;28;20487;-60
2022/11/10 03:32:51;;;;;;;4.60;3.20;;;10.90;99.90;;;;;;5095607;28;20454;-59
2022/11/10 03:35:18;;;;;;;5.97;3.50;;;10.90;99.90;;;;;;5095938;28;20461;-59
2022/11/10 03:37:45;;;;;;;5.50;3.30;;;10.90;99.90;;;;;;5095866;28;20454;-59
2022/11/10 03:40:13;;;;;;;6.73;3.70;;;10.90;99.90;;;;;;5095784;28;20444;-59
2022/11/10 03:42:43;;;;;;;6.93;3.37;;;10.80;99.90;;;;;;5095717;28;20443;-59
2022/11/10 03:45:12;;;;;;;3.33;2.80;;;10.80;99.90;;;;;;5095658;28;20500;-59
2022/11/10 03:47:41;;;;;;;5.23;3.60;;;10.90;99.90;;;;;;5095530;28;20451;-59
2022/11/10 03:50:08;;;;;;;5.23;3.20;;;10.90;99.90;;;;;;5095173;28;20532;-59
2022/11/10 03:52:38;;;;;;;4.70;3.70;;;10.90;99.90;;;;;;5095638;28;20443;-59
2022/11/10 03:55:06;;;;;;;5.10;3.20;;;10.90;99.90;;;;;;5095463;28;20467;-59
2022/11/10 03:57:33;;;;;;;5.67;3.67;;;10.80;99.90;;;;;;5095408;28;20454;-60
2022/11/10 04:00:00;;;;;;;4.87;3.50;;;10.80;99.90;;;;;;5095506;28;20442;-60
2022/11/10 04:02:29;;;;;;;7.00;4.10;;;10.70;99.90;;;;;;5095034;28;20529;-60
2022/11/10 04:10:30;;;;;;;5.13;3.20;;;10.90;99.90;;;;;;5094867;28;20964;-60
2022/11/10 04:15:42;;;;;;;5.60;2.90;;;10.90;99.90;;;;;;5094924;28;20447;-61
2022/11/10 04:18:24;;;;;;;4.97;3.20;;;10.80;99.90;;;;;;5094969;28;20496;-61
2022/11/10 04:20:52;;;;;;;5.10;3.03;;;10.80;99.90;;;;;;5095007;28;20431;-60
2022/11/10 04:23:33;;;;;;;4.93;3.33;;;10.80;99.90;;;;;;5094587;28;20455;-60
2022/11/10 04:28:48;;;;;;;8.20;3.50;;;10.70;99.90;;;;;;5094741;28;20477;-60
2022/11/10 04:31:17;;;;;;;4.10;3.67;;;10.80;99.90;;;;;;5094760;28;20590;-60
2022/11/10 04:33:46;;;;;;;3.83;3.53;;;10.90;99.90;;;;;;5094718;28;20448;-60
2022/11/10 04:36:15;;;;;;;4.53;3.03;;;10.90;99.90;;;;;;5094627;28;20467;-60
2022/11/10 04:38:42;;;;;;;12.93;3.17;;;10.80;99.90;;;;;;5094738;28;20479;-61
2022/11/10 04:41:10;;;;;;;4.93;3.03;;;10.80;99.90;;;;;;5094318;28;20447;-60
2022/11/10 04:43:37;;;;;;;3.77;3.20;;;10.80;99.90;;;;;;5094563;28;20487;-60
2022/11/10 04:46:06;;;;;;;10.40;4.17;;;10.80;99.90;;;;;;5094570;28;20475;-60
2022/11/10 04:48:35;;;;;;;8.30;3.67;;;10.70;99.90;;;;;;5094449;28;20454;-61
2022/11/10 04:51:06;;;;;;;3.80;3.40;;;10.60;99.90;;;;;;5093893;28;20523;-60
2022/11/10 04:53:33;;;;;;;6.90;3.57;;;10.70;99.90;;;;;;5094040;28;20428;-60
2022/11/10 04:56:00;;;;;;;4.50;3.20;;;10.70;99.90;;;;;;5094005;28;20464;-60
2022/11/10 04:58:28;;;;;;;7.80;3.43;;;10.60;99.90;;;;;;5093946;28;20443;-60
2022/11/10 05:00:55;;;;;;;11.30;3.73;;;10.60;99.90;;;;;;5094202;28;20808;-60
2022/11/10 05:03:22;;;;;;;9.57;3.53;;;10.60;99.90;;;;;;5094522;28;20530;-61
2022/11/10 05:05:49;;;;;;;4.33;3.10;;;10.60;99.90;;;;;;5094078;28;20499;-60
2022/11/10 05:08:18;;;;;;;7.60;3.70;;;10.60;99.90;;;;;;5094096;28;20453;-60
2022/11/10 05:10:45;;;;;;;4.10;3.47;;;10.50;99.90;;;;;;5094061;28;20479;-60
2022/11/10 05:13:12;;;;;;;4.00;3.60;;;10.50;99.90;;;;;;5093729;28;20486;-60
2022/11/10 05:15:41;;;;;;;7.60;3.73;;;10.40;99.90;;;;;;5093972;28;20461;-60
2022/11/10 05:18:08;;;;;;;5.37;4.87;;;10.30;99.90;;;;;;5093984;28;20793;-60
2022/11/10 05:20:36;;;;;;;7.10;3.37;;;10.20;99.90;;;;;;5094053;28;20443;-60
2022/11/10 05:25:49;;;;;;;8.23;3.97;;;10.30;99.90;;;;;;5093319;28;20944;-60
2022/11/10 05:28:16;;;;;;;8.60;3.73;;;10.10;99.90;;;;;;5093807;28;20455;-60
2022/11/10 05:30:44;;;;;;;6.73;3.73;;;10.00;99.90;;;;;;5093482;28;20566;-60
2022/11/10 05:33:11;;;;;;;6.87;3.83;;;10.00;99.90;;;;;;5093737;28;20469;-60
2022/11/10 05:35:39;;;;;;;7.40;3.37;;;10.00;99.90;;;;;;5093362;28;20546;-60
2022/11/10 05:38:07;;;;;;;5.10;4.23;;;9.90;99.90;;;;;;5093799;28;20471;-60
2022/11/10 05:40:34;;;;;;;6.73;3.60;;;9.80;99.90;;;;;;5093629;28;20444;-60
2022/11/10 05:43:03;;;;;;;6.67;3.90;;;9.70;99.90;;;;;;5093503;28;20451;-60
2022/11/10 05:45:30;;;;;;;7.30;4.07;;;9.70;99.90;;;;;;5093674;28;20550;-60
2022/11/10 05:47:57;;;;;;;4.67;3.83;;;9.80;99.90;;;;;;5093537;28;20479;-61
2022/11/10 05:50:25;;;;;;;12.50;5.50;;;9.70;99.90;;;;;;5092978;28;20522;-61
2022/11/10 05:52:54;;;;;;;9.47;3.87;;;9.80;99.90;;;;;;5093553;28;20475;-61
2022/11/10 05:55:23;;;;;;;7.33;3.77;;;9.80;99.90;;;;;;5093107;28;20467;-61
2022/11/10 05:57:52;;;;;;;8.87;4.43;;;9.80;99.90;;;;;;5093369;28;20542;-61
2022/11/10 06:00:23;;;;;;;4.87;4.33;;;9.80;99.90;;;;;;5093075;28;20964;-60
2022/11/10 06:03:00;;;;;;;8.30;4.50;;;9.80;99.90;;;;;;5093409;28;20785;-60
2022/11/10 06:05:28;;;;;;;6.80;3.60;;;9.80;99.90;;;;;;5093160;28;20489;-61
2022/11/10 06:07:56;;;;;;;5.63;3.63;;;9.80;99.90;;;;;;5092943;28;20495;-61
2022/11/10 06:10:23;;;;;;;5.03;3.67;;;9.80;99.90;;;;;;5092966;28;20482;-61
2022/11/10 06:12:50;;;;;;;8.40;4.27;;;9.80;99.90;;;;;;5092980;28;20443;-61
2022/11/10 06:15:17;;;;;;;7.17;4.40;;;9.80;99.90;;;;;;5092897;28;20467;-60
2022/11/10 06:17:46;;;;;;;6.70;4.33;;;9.80;99.90;;;;;;5092935;28;20443;-60
2022/11/10 06:20:16;;;;;;;7.67;4.17;;;9.70;99.90;;;;;;5093235;28;20443;-60
2022/11/10 06:22:43;;;;;;;5.27;4.77;;;9.60;99.90;;;;;;5092745;28;20454;-60
2022/11/10 06:25:11;;;;;;;4.47;3.53;;;9.60;99.90;;;;;;5092623;28;20482;-60
2022/11/10 06:27:38;;;;;;;6.13;4.43;;;9.50;99.90;;;;;;5092568;28;20479;-61
2022/11/10 06:30:06;;;;;;;7.10;4.03;;;9.50;99.90;;;;;;5092977;28;20800;-60
2022/11/10 06:32:35;;;;;;;6.10;4.60;;;9.50;99.90;;;;;;5092595;28;20538;-60
2022/11/10 06:35:04;;;;;;;8.37;4.57;;;9.70;99.90;;;;;;5092720;28;20973;-60
2022/11/10 06:37:31;;;;;;;4.87;4.07;;;9.70;99.90;;;;;;5095881;28;20457;-60
2022/11/10 06:39:58;;;;;;;5.83;3.67;;;9.70;99.90;;;;;;5096419;28;20858;-60
2022/11/10 06:42:25;;;;;;;5.90;4.30;;;9.70;99.90;;;;;;5096737;28;20546;-60
2022/11/10 06:44:52;;;;;;;4.03;3.63;;;9.80;99.90;;;;;;5096682;28;20478;-60
2022/11/10 06:47:19;;;;;;;5.10;4.07;;;9.90;99.90;;;;;;5095948;28;20535;-60
2022/11/10 06:49:47;;;;;;;4.97;3.70;;;9.90;99.90;;;;;;5096407;28;20483;-60
2022/11/10 06:52:15;;;;;;;9.77;4.27;;;9.90;99.90;;;;;;5096083;28;21031;-60
2022/11/10 06:54:42;;;;;;;9.83;4.20;;;9.80;99.90;;;;;;5095975;28;20550;-60
2022/11/10 06:57:09;;;;;;;9.97;4.77;;;9.80;99.90;;;;;;5096137;28;20445;-60
2022/11/10 06:59:37;;;;;;;10.07;3.93;;;9.90;99.90;;;;;;5096494;28;20479;-61
2022/11/10 07:02:04;;;;;;;5.90;4.70;;;10.00;99.90;;;;;;5096203;28;20444;-60
2022/11/10 07:04:31;;;;;;;9.13;4.83;;;10.00;99.90;;;;;;5096148;28;20796;-61
2022/11/10 07:06:58;;;;;;;5.27;4.77;;;10.00;99.90;;;;;;5095899;28;20534;-61
2022/11/10 07:09:27;;;;;;;12.87;4.13;;;10.10;99.90;;;;;;5096099;28;20490;-60
2022/11/10 07:11:54;;;;;;;8.60;4.10;;;10.20;99.90;;;;;;5095610;28;20500;-61
2022/11/10 07:14:21;;;;;;;6.87;4.60;;;10.30;99.90;;;;;;5096189;28;20469;-60
2022/11/10 07:16:48;;;;;;;5.03;4.27;;;10.40;99.90;;;;;;5095686;28;20451;-60
2022/11/10 07:19:15;;;;;;;5.97;3.40;;;10.50;99.90;;;;;;5095948;28;20539;-60
2022/11/10 07:21:43;;;;;;;14.97;4.80;;;10.50;99.90;;;;;;5095574;28;20439;-60
2022/11/10 07:24:10;;;;;;;4.87;3.50;;;10.60;99.90;;;;;;5095812;28;20447;-60
2022/11/10 07:26:39;;;;;;;4.50;4.07;;;10.70;99.90;;;;;;5095676;28;20448;-60
2022/11/10 07:29:06;;;;;;;5.40;4.47;;;10.80;99.90;;;;;;5095697;28;20458;-60
2022/11/10 07:31:33;;;;;;;11.07;3.80;;;10.80;99.90;;;;;;5095152;28;20471;-60
2022/11/10 07:34:00;;;;;;;3.83;3.53;;;10.90;99.90;;;;;;5095478;28;20546;-61
2022/11/10 07:36:28;;;;;;;4.00;3.67;;;11.00;99.90;;;;;;5095528;28;20564;-61
2022/11/10 07:38:55;;;;;;;4.50;4.10;;;11.00;99.90;;;;;;5095070;28;20448;-60
2022/11/10 07:41:22;;;;;;;5.07;3.80;;;11.00;99.90;;;;;;5094802;28;20855;-60
2022/11/10 07:43:51;;;;;;;4.90;3.57;;;11.00;99.90;;;;;;5095147;28;20458;-60
2022/11/10 07:46:18;;;;;;;8.33;4.60;;;11.00;99.90;;;;;;5094945;28;20529;-60
2022/11/10 07:48:45;;;;;;;6.93;3.80;;;10.90;99.90;;;;;;5094921;28;20447;-60
2022/11/10 07:51:12;;;;;;;3.73;3.30;;;11.00;99.90;;;;;;5095264;28;20468;-60
2022/11/10 07:53:40;;;;;;;4.50;3.30;;;11.10;99.90;;;;;;5095230;28;20439;-60
2022/11/10 07:56:07;;;;;;;5.03;4.50;;;11.10;99.90;;;;;;5094918;28;20474;-60
2022/11/10 07:58:35;;;;;;;4.00;3.53;;;11.20;99.90;;;;;;5095110;28;20829;-60
2022/11/10 08:01:06;;;;;;;6.83;3.60;;;11.20;99.90;;;;;;5094939;28;20956;-61
2022/11/10 08:03:33;;;;;;;6.10;3.43;;;11.30;99.90;;;;;;5094444;28;20519;-60
2022/11/10 08:06:00;;;;;;;4.20;3.20;;;11.30;99.90;;;;;;5094941;28;20468;-60
2022/11/10 08:08:28;;;;;;;8.23;3.50;;;11.40;99.90;;;;;;5094837;28;20447;-60
2022/11/10 08:10:58;;;;;;;6.23;3.37;;;11.40;99.90;;;;;;5094808;28;20544;-60
2022/11/10 08:13:25;;;;;;;5.13;3.10;;;11.50;99.90;;;;;;5094529;28;20462;-60
2022/11/10 08:15:52;;;;;;;6.20;3.30;;;11.50;99.90;;;;;;5094746;28;20554;-60
2022/11/10 08:18:22;;;;;;;7.27;3.23;;;11.60;99.90;;;;;;5094786;28;20482;-60
2022/11/10 08:20:50;;;;;;;8.57;5.50;;;11.70;99.90;;;;;;5095038;28;20535;-60
2022/11/10 08:23:18;;;;;;;5.87;3.43;;;11.70;99.90;;;;;;5094344;28;20447;-60
2022/11/10 08:25:46;;;;;;;12.67;4.03;;;11.70;99.90;;;;;;5094446;28;20474;-60
2022/11/10 08:28:16;;;;;;;8.70;3.80;;;11.80;99.90;;;;;;5093840;28;20454;-60
2022/11/10 08:30:46;;;;;;;5.23;3.40;;;11.80;99.90;;;;;;5093798;28;20479;-60
2022/11/10 08:33:15;;;;;;;6.07;3.50;;;11.80;99.90;;;;;;5094027;28;20444;-60
2022/11/10 08:35:46;;;;;;;3.50;3.20;;;11.90;99.90;;;;;;5093688;28;20475;-60
2022/11/10 08:38:15;;;;;;;10.97;3.40;;;11.90;99.90;;;;;;5093758;28;20944;-60
2022/11/10 08:40:44;;;;;;;12.30;3.60;;;12.00;99.90;;;;;;5094047;28;20510;-60
2022/11/10 08:43:12;;;;;;;6.17;3.80;;;12.10;99.90;;;;;;5093480;28;20455;-61
2022/11/10 08:45:41;;;;;;;5.40;3.73;;;12.20;99.90;;;;;;5093502;28;20895;-61
2022/11/10 08:48:09;;;;;;;3.97;2.77;;;12.30;99.90;;;;;;5093500;28;20454;-60
2022/11/10 08:50:37;;;;;;;2.57;2.37;;;12.30;99.90;;;;;;5093224;28;20504;-61
2022/11/10 08:53:11;;;;;;;5.80;2.60;;;12.30;99.90;;;;;;5094034;28;20832;-61
2022/11/10 08:55:39;;;;;;;4.87;2.27;;;12.40;99.90;;;;;;5093598;28;20474;-61
2022/11/10 08:58:07;;;;;;;6.30;2.63;;;12.50;99.90;;;;;;5093623;28;20533;-61
2022/11/10 09:00:35;;;;;;;3.60;2.43;;;12.60;99.90;;;;;;5093379;28;20501;-61
2022/11/10 09:03:07;;;;;;;5.73;2.57;;;12.70;99.90;;;;;;5093420;28;20925;-61
2022/11/10 09:05:35;;;;;;;4.73;2.23;;;12.70;99.90;;;;;;5093634;28;20848;-61
2022/11/10 09:08:02;;;;;;;5.67;1.87;;;12.80;99.90;;;;;;5093811;28;20455;-60
2022/11/10 09:10:31;;;;;;;5.30;2.57;;;12.80;99.90;;;;;;5093438;28;20451;-60
2022/11/10 09:13:00;;;;;;;4.57;2.27;;;12.90;99.90;;;;;;5093093;28;20566;-60
2022/11/10 09:15:27;;;;;;;5.83;1.97;;;12.90;99.90;;;;;;5093736;28;20486;-61
2022/11/10 09:17:57;;;;;;;3.60;1.93;;;13.00;99.90;;;;;;5093317;28;20447;-60
2022/11/10 09:20:24;;;;;;;7.13;2.03;;;12.90;99.90;;;;;;5093117;28;20454;-60
2022/11/10 09:22:51;;;;;;;4.53;1.80;;;13.00;99.90;;;;;;5093545;28;20443;-60
2022/11/10 09:25:18;;;;;;;5.23;2.40;;;13.10;99.90;;;;;;5092995;28;21051;-61
2022/11/10 09:27:47;;;;;;;6.90;2.00;;;13.10;99.90;;;;;;5093340;28;20534;-61
2022/11/10 09:30:15;;;;;;;4.30;2.30;;;13.20;99.90;;;;;;5093183;28;20447;-60
2022/11/10 09:32:45;;;;;;;4.60;2.37;;;13.20;99.90;;;;;;5093273;28;20483;-60
2022/11/10 09:35:13;;;;;;;3.60;2.00;;;13.20;99.90;;;;;;5092932;28;20471;-61
2022/11/10 09:37:40;;;;;;;2.17;1.90;;;13.20;99.90;;;;;;5093296;28;20439;-61
2022/11/10 09:40:19;;;;;;;4.43;1.80;;;13.20;99.90;;;;;;5093296;28;20443;-61
2022/11/10 09:42:48;;;;;;;5.47;1.80;;;13.20;99.90;;;;;;5093123;28;20428;-61
2022/11/10 09:45:23;;;;;;;3.50;1.93;;;13.30;99.90;;;;;;5092830;28;20789;-61
2022/11/10 09:48:00;;;;;;;2.87;2.03;;;13.30;99.90;;;;;;5093098;28;20434;-61
2022/11/10 09:50:34;;;;;;;5.47;2.00;;;13.40;99.90;;;;;;5092736;28;20467;-61
2022/11/10 09:53:03;;;;;;;3.47;1.80;;;13.50;99.90;;;;;;5093038;28;20550;-61
2022/11/10 09:55:36;;;;;;;9.97;2.00;;;13.60;99.90;;;;;;5092785;28;20830;-61
2022/11/10 09:58:05;;;;;;;7.23;2.00;;;13.60;99.90;;;;;;5093176;28;20432;-61
2022/11/10 10:00:35;;;;;;;2.80;1.83;;;13.60;99.90;;;;;;5093140;28;20455;-61
2022/11/10 10:03:04;;;;;;;5.67;2.00;;;13.70;99.90;;;;;;5092912;28;20451;-61
2022/11/10 10:05:51;;;;;;;8.37;2.10;;;13.70;99.90;;;;;;5092746;28;20469;-61
2022/11/10 10:08:28;;;;;;;5.00;2.03;;;13.80;99.90;;;;;;5092363;28;20431;-61
2022/11/10 10:11:06;;;;;;;2.17;1.67;;;13.90;99.90;;;;;;5092346;28;20467;-61
2022/11/10 10:14:02;;;;;;;6.43;1.70;;;13.90;99.90;;;;;;5095663;28;20572;-61
2022/11/10 10:16:36;;;;;;;3.53;2.00;;;14.00;99.90;;;;;;5096625;28;20474;-59
2022/11/10 10:19:15;;;;;;;3.30;2.07;;;14.10;99.90;;;;;;5096128;28;20432;-60
2022/11/10 10:21:53;;;;;;;2.70;2.27;;;14.20;99.90;;;;;;5096580;28;20474;-63
2022/11/10 10:24:23;;;;;;;3.10;1.93;;;14.40;99.90;;;;;;5096468;28;20467;-63
2022/11/10 10:26:53;;;;;;;3.63;2.00;;;14.90;99.90;;;;;;5096550;28;20529;-61
2022/11/10 10:29:23;;;;;;;3.57;1.90;;;16.10;99.90;;;;;;5096420;28;20458;-61
2022/11/10 10:31:52;;;;;;;4.30;2.20;;;17.50;99.90;;;;;;5096346;28;20475;-61
2022/11/10 10:34:23;;;;;;;4.63;2.10;;;18.20;99.90;;;;;;5096816;28;20486;-60
2022/11/10 10:36:50;;;;;;;3.87;2.00;;;18.60;99.90;;;;;;5096759;28;20439;-61
2022/11/10 10:39:26;;;;;;;7.37;2.10;;;19.40;99.90;;;;;;5096655;28;20796;-60
2022/11/10 10:41:53;;;;;;;4.43;1.93;;;;;;;;;;5096632;28;20776;-60
2022/11/10 10:44:22;;;;;;;3.70;1.60;;;20.90;99.90;;;;;;5096494;28;20964;-61
2022/11/10 10:46:52;;;;;;;6.30;2.00;;;21.10;99.90;;;;;;5096090;28;20473;-61
2022/11/10 10:49:22;;;;;;;3.17;2.20;;;21.20;99.80;;;;;;5095952;28;20548;-61
2022/11/10 10:51:50;;;;;;;2.10;1.90;;;21.30;99.90;;;;;;5096821;28;20562;-61
2022/11/10 10:54:25;;;;;;;3.20;1.70;;;21.10;99.30;;;;;;5096010;28;20447;-61
2022/11/10 10:57:01;;;;;;;3.47;1.73;;;20.60;98.60;;;;;;5096130;28;20449;-61
2022/11/10 10:59:30;;;;;;;2.10;1.50;;;21.20;98.80;;;;;;5096395;28;20431;-60
2022/11/10 11:01:58;;;;;;;3.23;2.00;;;22.10;99.90;;;;;;5096109;28;20449;-60
2022/11/10 11:04:31;;;;;;;3.53;1.53;;;22.20;97.10;;;;;;5096257;28;20519;-60
2022/11/10 11:07:00;;;;;;;4.57;1.60;;;21.70;97.60;;;;;;5095879;28;20425;-61
2022/11/10 11:09:29;;;;;;;3.57;1.80;;;21.80;97.30;;;;;;5095758;28;20455;-60
2022/11/10 11:12:03;;;;;;;3.10;1.83;;;22.30;95.10;;;;;;5095937;28;20486;-60
2022/11/10 11:14:32;;;;;;;4.77;2.20;;;22.20;97.50;;;;;;5096047;28;20551;-60
2022/11/10 11:17:02;;;;;;;2.90;1.60;;;21.90;94.90;;;;;;5095794;28;20470;-61
2022/11/10 11:19:32;;;;;;;3.37;2.40;;;21.50;94.30;;;;;;5095916;28;20541;-60
2022/11/10 11:22:15;;;;;;;2.33;1.77;;;21.50;94.40;;;;;;5095166;28;20440;-60
2022/11/10 11:24:51;;;;;;;2.43;1.80;;;21.40;94.10;;;;;;5096026;28;20502;-60
2022/11/10 11:27:29;;;;;;;3.57;1.87;;;21.00;94.40;;;;;;5095394;28;20523;-60
2022/11/10 11:30:05;;;;;;;9.50;2.33;;;21.40;94.20;;;;;;5095410;28;20437;-59
2022/11/10 11:33:07;;;;;;;2.63;1.50;;;20.90;93.40;;;;;;5095522;28;20466;-60
2022/11/10 11:35:42;;;;;;;2.30;1.80;;;20.60;96.30;;;;;;5095315;28;20471;-60
2022/11/10 11:38:13;;;;;;;2.43;1.60;;;20.50;95.40;;;;;;5095761;28;20427;-60
2022/11/10 11:40:57;;;;;;;2.30;1.63;;;20.40;96.60;;;;;;5095561;28;20528;-60
2022/11/10 11:43:54;;;;;;;2.40;1.50;;;20.10;95.70;;;;;;5095051;28;20537;-60
2022/11/10 11:46:31;;;;;;;3.07;1.83;;;19.70;97.40;;;;;;5094786;28;20463;-59
2022/11/10 11:49:09;;;;;;;3.73;1.80;;;18.50;96.50;;;;;;5094850;28;20894;-59
2022/11/10 11:51:46;;;;;;;3.50;1.90;;;18.30;97.90;;;;;;5094886;28;20428;-59
2022/11/10 11:54:26;;;;;;;5.33;1.80;;;18.10;97.50;;;;;;5094717;28;20442;-60
2022/11/10 11:57:04;;;;;;;4.13;1.93;;;18.00;97.20;;;;;;5095323;28;20460;-60
2022/11/10 11:59:44;;;;;;;5.00;1.73;;;18.00;98.00;;;;;;5095279;28;20482;-60
2022/11/10 12:02:36;;;;;;;5.53;2.07;;;17.80;97.20;;;;;;5095166;28;20462;-60
2022/11/10 12:05:15;;;;;;;5.10;2.37;;;17.40;98.70;;;;;;5094944;28;20463;-60
2022/11/10 12:07:55;;;;;;;14.70;8.50;;;17.50;99.50;;;;;;5094797;28;20482;-60
2022/11/10 12:10:33;;;;;;;3.03;2.20;;;17.70;98.60;;;;;;5094854;28;20874;-60
2022/11/10 12:13:22;;;;;;;6.27;2.30;;;17.70;98.80;;;;;;5094803;28;20536;-61
2022/11/10 12:15:55;;;;;;;9.00;3.43;;;17.80;99.70;;;;;;5091728;28;20475;-60
2022/11/10 12:18:33;;;;;;;7.93;2.73;;;;;;;;;;5094363;28;20428;-60
2022/11/10 12:21:24;;;;;;;4.60;1.87;;;17.30;99.70;;;;;;5093980;28;20914;-60
2022/11/10 12:24:19;;;;;;;1.97;1.50;;;17.30;99.90;;;;;;5094257;28;20436;-60
2022/11/10 12:26:52;;;;;;;2.50;1.77;;;17.20;99.10;;;;;;5094683;28;20482;-60
2022/11/10 12:29:27;;;;;;;3.93;1.97;;;16.80;98.60;;;;;;5094695;28;20442;-60
2022/11/10 12:31:59;;;;;;;3.57;2.33;;;16.70;98.70;;;;;;5094105;28;20427;-60
2022/11/10 12:34:35;;;;;;;3.60;1.90;;;16.50;98.70;;;;;;5093604;28;20428;-60
2022/11/10 12:37:06;;;;;;;3.00;1.77;;;16.40;99.20;;;;;;5094533;28;20434;-60
2022/11/10 12:39:46;;;;;;;4.57;2.10;;;16.30;98.90;;;;;;5094247;28;20478;-60
2022/11/10 12:42:17;;;;;;;2.13;1.63;;;16.40;98.70;;;;;;5094320;28;20424;-60
2022/11/10 12:44:59;;;;;;;2.00;1.60;;;16.50;98.70;;;;;;5094445;28;20562;-60
2022/11/10 12:47:31;;;;;;;2.23;1.60;;;16.30;98.60;;;;;;5093825;28;20424;-60
2022/11/10 12:50:20;;;;;;;3.10;1.50;;;16.20;99.00;;;;;;5093753;28;20558;-60
2022/11/10 12:52:53;;;;;;;3.43;1.93;;;16.30;99.70;;;;;;5094072;28;20499;-61
2022/11/10 12:55:25;;;;;;;3.60;1.43;;;16.30;99.00;;;;;;5094090;28;20554;-61
2022/11/10 12:57:52;;;;;;;4.00;1.37;;;16.70;98.90;;;;;;5094088;28;20460;-61
2022/11/10 13:00:26;;;;;;;4.40;1.67;;;16.80;99.10;;;;;;5093690;28;20934;-61
2022/11/10 13:02:55;;;;;;;2.70;1.73;;;16.80;98.50;;;;;;5093723;28;20431;-60
2022/11/10 13:05:32;;;;;;;5.57;1.90;;;16.50;99.00;;;;;;5093913;28;20500;-59
2022/11/10 13:08:26;;;;;;;1.73;1.30;;;16.70;99.20;;;;;;5093630;28;20431;-59
2022/11/10 13:10:55;;;;;;;2.03;1.60;;;16.80;99.80;;;;;;5093873;28;20609;-59
2022/11/10 13:13:24;;;;;;;6.87;2.20;;;16.80;99.90;;;;;;5093532;28;20591;-59
2022/11/10 13:15:54;;;;;;;2.43;1.67;;;16.90;99.90;;;;;;5093673;28;20467;-59
2022/11/10 13:19:00;;;;;;;6.00;1.80;;;16.90;99.90;;;;;;5093364;28;20436;-61
2022/11/10 13:22:08;;;;;;;2.97;1.63;;;16.90;99.90;;;;;;5093642;28;20420;-60